createdAt,value
2024-01-29T00:00:57.908Z,0.11
2024-01-29T00:03:25.444Z,0.12
2024-01-29T00:05:52.884Z,0.19
2024-01-29T00:08:20.181Z,0.14
2024-01-29T00:10:47.797Z,0.08
2024-01-29T00:13:15.218Z,0.08
2024-01-29T00:15:42.615Z,0.17
2024-01-29T00:18:10.151Z,-0.07
2024-01-29T00:20:37.563Z,-0.06
2024-01-29T00:23:04.916Z,-0.19
2024-01-29T00:25:32.192Z,-0.31
2024-01-29T00:27:59.548Z,-0.40
2024-01-29T00:30:27.028Z,-0.47
2024-01-29T00:32:54.448Z,-0.47
2024-01-29T00:35:21.868Z,-0.35
2024-01-29T00:37:49.168Z,-0.42
2024-01-29T00:40:16.629Z,-0.40
2024-01-29T00:42:45.083Z,-0.38
2024-01-29T00:45:12.389Z,-0.37
2024-01-29T00:47:39.695Z,-0.37
2024-01-29T00:50:07.110Z,-0.32
2024-01-29T00:52:34.626Z,-0.30
2024-01-29T00:55:02.151Z,-0.30
2024-01-29T00:57:30.881Z,-0.25
2024-01-29T00:59:58.259Z,-0.20
2024-01-29T01:02:25.594Z,-0.16
2024-01-29T01:04:52.971Z,-0.13
2024-01-29T01:07:20.447Z,-0.12
2024-01-29T01:09:47.807Z,-0.10
2024-01-29T01:12:15.111Z,-0.09
2024-01-29T01:14:42.386Z,-0.17
2024-01-29T01:17:09.684Z,-0.26
2024-01-29T01:19:37.141Z,-0.28
2024-01-29T01:22:04.854Z,-0.32
2024-01-29T01:24:32.250Z,-0.32
2024-01-29T01:26:59.575Z,-0.31
2024-01-29T01:29:26.880Z,-0.26
2024-01-29T01:31:54.197Z,-0.26
2024-01-29T01:34:21.597Z,-0.29
2024-01-29T01:36:49.027Z,-0.29
2024-01-29T01:39:16.446Z,-0.32
2024-01-29T01:41:51.071Z,-0.31
2024-01-29T01:44:18.392Z,-0.31
2024-01-29T01:46:46.056Z,-0.32
2024-01-29T01:49:13.734Z,-0.30
2024-01-29T01:51:41.188Z,-0.28
2024-01-29T01:54:09.747Z,-0.26
2024-01-29T01:56:39.201Z,-0.32
2024-01-29T01:59:08.400Z,-0.33
2024-01-29T02:01:35.775Z,-0.34
2024-01-29T02:04:03.342Z,-0.33
2024-01-29T02:06:30.933Z,-0.34
2024-01-29T02:08:58.332Z,-0.35
2024-01-29T02:11:25.911Z,-0.34
2024-01-29T02:13:53.195Z,-0.36
2024-01-29T02:16:20.501Z,-0.37
2024-01-29T02:18:47.881Z,-0.40
2024-01-29T02:21:15.503Z,-0.40
2024-01-29T02:23:46.337Z,-0.38
2024-01-29T02:26:14.017Z,-0.35
2024-01-29T02:28:41.304Z,-0.31
2024-01-29T02:31:08.762Z,-0.27
2024-01-29T02:33:36.282Z,-0.30
2024-01-29T02:36:03.821Z,-0.29
2024-01-29T02:38:31.087Z,-0.32
2024-01-29T02:40:58.385Z,-0.29
2024-01-29T02:43:25.710Z,-0.27
2024-01-29T02:45:53.451Z,-0.29
2024-01-29T02:48:21.045Z,-0.28
2024-01-29T02:50:49.406Z,-0.26
2024-01-29T02:53:16.663Z,-0.26
2024-01-29T02:55:43.942Z,-0.29
2024-01-29T02:58:11.317Z,-0.34
2024-01-29T03:00:38.678Z,-0.26
2024-01-29T03:03:06.172Z,-0.25
2024-01-29T03:05:33.509Z,-0.23
2024-01-29T03:08:00.844Z,-0.20
2024-01-29T03:10:28.150Z,-0.20
2024-01-29T03:12:56.251Z,-0.21
2024-01-29T03:15:24.357Z,-0.22
2024-01-29T03:17:51.878Z,-0.23
2024-01-29T03:20:19.241Z,-0.24
2024-01-29T03:22:46.525Z,-0.25
2024-01-29T03:25:13.893Z,-0.23
2024-01-29T03:27:41.279Z,-0.22
2024-01-29T03:30:08.792Z,-0.17
2024-01-29T03:32:36.264Z,-0.23
2024-01-29T03:35:03.634Z,-0.29
2024-01-29T03:37:30.928Z,-0.37
2024-01-29T03:39:58.321Z,-0.39
2024-01-29T03:42:25.782Z,-0.32
2024-01-29T03:44:53.186Z,-0.29
2024-01-29T03:47:20.481Z,-0.38
2024-01-29T03:49:48.013Z,-0.39
2024-01-29T03:52:15.368Z,-0.40
2024-01-29T03:54:42.728Z,-0.49
2024-01-29T03:57:10.029Z,-0.43
2024-01-29T03:59:37.610Z,-0.57
2024-01-29T04:02:05.057Z,-0.66
2024-01-29T04:04:33.214Z,-0.69
2024-01-29T04:07:01.439Z,-0.70
2024-01-29T04:09:28.920Z,-0.61
2024-01-29T04:11:56.410Z,-0.63
2024-01-29T04:14:24.264Z,-0.62
2024-01-29T04:16:51.998Z,-0.61
2024-01-29T04:19:19.548Z,-0.69
2024-01-29T04:21:47.120Z,-0.64
2024-01-29T04:24:14.712Z,-0.61
2024-01-29T04:26:41.988Z,-0.56
2024-01-29T04:29:12.149Z,-0.53
2024-01-29T04:31:39.528Z,-0.49
2024-01-29T04:34:07.014Z,-0.43
2024-01-29T04:36:34.399Z,-0.42
2024-01-29T04:39:01.730Z,-0.40
2024-01-29T04:41:29.058Z,-0.33
2024-01-29T04:43:56.358Z,-0.33
2024-01-29T04:46:24.247Z,-0.31
2024-01-29T04:48:51.607Z,-0.27
2024-01-29T04:51:19.405Z,-0.11
2024-01-29T04:53:46.794Z,-0.20
2024-01-29T04:56:14.213Z,-0.26
2024-01-29T04:58:41.516Z,-0.25
2024-01-29T05:01:09.797Z,-0.24
2024-01-29T05:03:38.583Z,-0.24
2024-01-29T05:06:06.747Z,-0.26
2024-01-29T05:08:34.230Z,-0.33
2024-01-29T05:11:01.574Z,-0.32
2024-01-29T05:13:29.033Z,-0.22
2024-01-29T05:15:56.327Z,-0.21
2024-01-29T05:18:23.787Z,-0.35
2024-01-29T05:20:51.112Z,-0.39
2024-01-29T05:23:18.489Z,-0.47
2024-01-29T05:25:45.920Z,-0.45
2024-01-29T05:28:13.314Z,-0.47
2024-01-29T05:30:40.768Z,-0.60
2024-01-29T05:33:24.663Z,-0.59
2024-01-29T05:35:54.627Z,-0.66
2024-01-29T05:38:21.939Z,-0.69
2024-01-29T05:40:49.247Z,-0.77
2024-01-29T05:43:16.654Z,-0.80
2024-01-29T05:45:44.026Z,-0.73
2024-01-29T05:48:11.449Z,-0.61
2024-01-29T05:50:38.810Z,-0.72
2024-01-29T05:53:06.257Z,-0.71
2024-01-29T05:55:33.570Z,-0.66
2024-01-29T05:58:00.911Z,-0.58
2024-01-29T06:00:28.314Z,-0.50
2024-01-29T06:02:55.711Z,-0.45
2024-01-29T06:05:23.288Z,-0.36
2024-01-29T06:07:52.565Z,-0.31
2024-01-29T06:10:20.009Z,-0.25
2024-01-29T06:12:48.681Z,-0.18
2024-01-29T06:15:16.092Z,-0.23
2024-01-29T06:17:43.858Z,-0.26
2024-01-29T06:20:17.468Z,-0.28
2024-01-29T06:22:46.964Z,-0.23
2024-01-29T06:25:14.591Z,-0.15
2024-01-29T06:27:42.478Z,-0.14
2024-01-29T06:30:10.131Z,-0.12
2024-01-29T06:32:37.597Z,-0.06
2024-01-29T06:35:05.296Z,-0.04
2024-01-29T06:37:32.913Z,-0.04
2024-01-29T06:40:00.421Z,-0.05
2024-01-29T06:42:27.889Z,0.00
2024-01-29T06:44:55.443Z,-0.12
2024-01-29T06:47:22.800Z,-0.13
2024-01-29T06:49:50.347Z,-0.07
2024-01-29T06:52:19.009Z,-0.10
2024-01-29T06:54:46.937Z,-0.19
2024-01-29T06:57:33.115Z,-0.14
2024-01-29T07:00:00.425Z,-0.29
2024-01-29T07:02:27.714Z,-0.23
2024-01-29T07:04:55.619Z,-0.29
2024-01-29T07:07:22.994Z,-0.30
2024-01-29T07:09:54.437Z,-0.23
2024-01-29T07:12:21.980Z,-0.30
2024-01-29T07:14:50.481Z,-0.32
2024-01-29T07:17:17.974Z,-0.25
2024-01-29T07:19:46.760Z,-0.36
2024-01-29T07:22:19.881Z,-0.45
2024-01-29T07:24:47.791Z,-0.45
2024-01-29T07:27:15.142Z,-0.40
2024-01-29T07:29:42.479Z,-0.38
2024-01-29T07:32:33.243Z,-0.30
2024-01-29T07:35:05.097Z,-0.21
2024-01-29T07:37:32.419Z,-0.12
2024-01-29T07:40:00.139Z,0.03
2024-01-29T07:42:27.631Z,0.13
2024-01-29T07:44:55.068Z,0.15
2024-01-29T07:47:22.558Z,0.24
2024-01-29T07:49:49.913Z,0.31
2024-01-29T07:52:17.248Z,0.34
2024-01-29T07:54:44.630Z,0.40
2024-01-29T07:57:11.944Z,0.40
2024-01-29T07:59:41.060Z,0.40
2024-01-29T08:02:08.848Z,0.41
2024-01-29T08:04:36.288Z,0.38
2024-01-29T08:07:03.627Z,0.30
2024-01-29T08:09:31.048Z,0.27
2024-01-29T08:11:58.695Z,0.20
2024-01-29T08:14:25.995Z,0.31
2024-01-29T08:16:53.291Z,0.33
2024-01-29T08:19:21.768Z,0.18
2024-01-29T08:21:50.183Z,0.07
2024-01-29T08:24:36.209Z,0.06
2024-01-29T08:27:03.588Z,-0.03
2024-01-29T08:29:30.878Z,0.01
2024-01-29T08:31:58.207Z,-0.04
2024-01-29T08:34:27.075Z,-0.05
2024-01-29T08:36:54.540Z,-0.04
2024-01-29T08:39:21.891Z,0.02
2024-01-29T08:41:49.183Z,-0.11
2024-01-29T08:44:16.534Z,-0.06
2024-01-29T08:46:43.996Z,-0.09
2024-01-29T08:49:11.292Z,-0.14
2024-01-29T08:51:38.612Z,-0.02
2024-01-29T08:54:06.173Z,-0.03
2024-01-29T08:56:33.491Z,-0.03
2024-01-29T08:59:00.849Z,-0.04
2024-01-29T09:01:28.332Z,-0.02
2024-01-29T09:03:55.717Z,0.04
2024-01-29T09:06:23.291Z,-0.04
2024-01-29T09:08:50.617Z,-0.05
2024-01-29T09:11:18.001Z,-0.03
2024-01-29T09:13:45.337Z,-0.15
2024-01-29T09:16:12.608Z,-0.14
2024-01-29T09:18:40.346Z,-0.08
2024-01-29T09:21:09.261Z,-0.09
2024-01-29T09:23:36.827Z,-0.09
2024-01-29T09:26:04.232Z,-0.09
2024-01-29T09:28:31.520Z,-0.12
2024-01-29T09:30:58.825Z,-0.08
2024-01-29T09:33:27.578Z,-0.09
2024-01-29T09:35:55.254Z,-0.08
2024-01-29T09:38:22.523Z,-0.18
2024-01-29T09:40:49.977Z,-0.34
2024-01-29T09:43:18.094Z,-0.36
2024-01-29T09:45:45.901Z,-0.36
2024-01-29T09:48:15.942Z,-0.38
2024-01-29T09:50:46.565Z,-0.41
2024-01-29T09:53:18.142Z,-0.32
2024-01-29T09:55:45.500Z,-0.18
2024-01-29T09:58:12.872Z,-0.06
2024-01-29T10:00:40.350Z,0.01
2024-01-29T10:03:09.312Z,0.03
2024-01-29T10:05:37.175Z,0.08
2024-01-29T10:08:04.706Z,0.05
2024-01-29T10:10:32.061Z,0.04
2024-01-29T10:13:05.597Z,0.17
2024-01-29T10:15:33.249Z,0.17
2024-01-29T10:18:00.904Z,0.04
2024-01-29T10:20:29.185Z,-0.09
2024-01-29T10:22:59.715Z,-0.12
2024-01-29T10:25:27.477Z,-0.23
2024-01-29T10:27:55.470Z,-0.26
2024-01-29T10:30:23.437Z,-0.25
2024-01-29T10:32:50.758Z,-0.23
2024-01-29T10:35:18.216Z,-0.34
2024-01-29T10:37:47.516Z,-0.40
2024-01-29T10:40:16.774Z,-0.38
2024-01-29T10:42:46.664Z,-0.38
2024-01-29T10:45:15.672Z,-0.39
2024-01-29T10:47:47.221Z,-0.35
2024-01-29T10:50:17.807Z,-0.42
2024-01-29T10:52:46.606Z,-0.43
2024-01-29T10:55:17.393Z,-0.45
2024-01-29T10:57:48.504Z,-0.39
2024-01-29T11:00:17.882Z,-0.40
2024-01-29T11:02:45.704Z,-0.45
2024-01-29T11:05:15.008Z,-0.48
2024-01-29T11:07:44.660Z,-0.47
2024-01-29T11:10:22.902Z,-0.38
2024-01-29T11:12:51.948Z,-0.54
2024-01-29T11:15:19.337Z,-0.42
2024-01-29T11:17:47.118Z,-0.39
2024-01-29T11:20:15.623Z,-0.30
2024-01-29T11:22:50.901Z,-0.19
2024-01-29T11:25:18.740Z,-0.12
2024-01-29T11:27:48.343Z,-0.05
2024-01-29T11:30:24.603Z,-0.07
2024-01-29T11:32:52.836Z,-0.10
2024-01-29T11:35:31.290Z,-0.09
2024-01-29T11:38:10.189Z,-0.08
2024-01-29T11:40:41.638Z,-0.08
2024-01-29T11:43:16.340Z,-0.06
2024-01-29T11:45:48.206Z,-0.20
2024-01-29T11:48:16.756Z,-0.32
2024-01-29T11:50:46.662Z,-0.26
2024-01-29T11:53:15.691Z,-0.34
2024-01-29T11:55:43.631Z,-0.33
2024-01-29T11:58:12.930Z,-0.22
2024-01-29T12:00:40.963Z,-0.25
2024-01-29T12:03:10.084Z,-0.28
2024-01-29T12:05:37.535Z,-0.22
2024-01-29T12:08:05.399Z,-0.29
2024-01-29T12:10:32.847Z,-0.29
2024-01-29T12:13:00.141Z,-0.31
2024-01-29T12:15:27.634Z,-0.46
2024-01-29T12:17:55.857Z,-0.45
2024-01-29T12:20:23.704Z,-0.60
2024-01-29T12:22:51.112Z,-0.61
2024-01-29T12:25:18.541Z,-0.62
2024-01-29T12:27:45.947Z,-0.53
2024-01-29T12:30:14.776Z,-0.62
2024-01-29T12:32:44.937Z,-0.62
2024-01-29T12:35:30.060Z,-0.62
2024-01-29T12:38:06.846Z,-0.74
2024-01-29T12:40:35.001Z,-0.82
2024-01-29T12:43:03.285Z,-0.81
2024-01-29T12:45:30.902Z,-0.78
2024-01-29T12:48:04.362Z,-0.72
2024-01-29T12:50:31.836Z,-0.54
2024-01-29T12:53:00.168Z,-0.57
2024-01-29T12:55:27.545Z,-0.64
2024-01-29T12:57:54.992Z,-0.60
2024-01-29T13:00:22.566Z,-0.44
2024-01-29T13:02:51.171Z,-0.55
2024-01-29T13:05:19.128Z,-0.58
2024-01-29T13:07:47.091Z,-0.68
2024-01-29T13:10:15.172Z,-0.78
2024-01-29T13:12:42.671Z,-0.82
2024-01-29T13:15:12.618Z,-0.80
2024-01-29T13:17:43.266Z,-0.91
2024-01-29T13:20:12.746Z,-1.05
2024-01-29T13:22:40.327Z,-1.16
2024-01-29T13:25:08.372Z,-1.14
2024-01-29T13:27:35.888Z,-1.17
2024-01-29T13:30:03.749Z,-1.18
2024-01-29T13:32:31.570Z,-1.13
2024-01-29T13:34:58.993Z,-1.07
2024-01-29T13:37:26.273Z,-1.10
2024-01-29T13:39:53.647Z,-1.10
2024-01-29T13:42:20.990Z,-1.04
2024-01-29T13:44:48.285Z,-1.20
2024-01-29T13:47:15.614Z,-1.22
2024-01-29T13:49:42.982Z,-1.18
2024-01-29T13:52:10.333Z,-0.94
2024-01-29T13:54:38.020Z,-1.06
2024-01-29T13:57:05.374Z,-0.99
2024-01-29T13:59:33.830Z,-0.95
2024-01-29T14:02:01.342Z,-1.14
2024-01-29T14:04:28.809Z,-1.28
2024-01-29T14:06:57.398Z,-1.23
2024-01-29T14:09:24.706Z,-1.22
2024-01-29T14:11:52.016Z,-1.21
2024-01-29T14:14:22.032Z,-1.17
2024-01-29T14:16:52.338Z,-1.18
2024-01-29T14:19:19.680Z,-1.14
2024-01-29T14:21:47.067Z,-1.14
2024-01-29T14:24:14.417Z,-1.17
2024-01-29T14:26:42.908Z,-1.20
2024-01-29T14:29:10.174Z,-1.13
2024-01-29T14:31:37.523Z,-1.10
2024-01-29T14:34:05.467Z,-1.00
2024-01-29T14:36:32.879Z,-0.93
2024-01-29T14:39:00.217Z,-0.92
2024-01-29T14:41:27.537Z,-0.86
2024-01-29T14:43:54.813Z,-0.84
2024-01-29T14:46:24.416Z,-0.81
2024-01-29T14:48:52.234Z,-0.88
2024-01-29T14:51:19.593Z,-0.86
2024-01-29T14:53:46.856Z,-0.91
2024-01-29T14:56:14.269Z,-0.90
2024-01-29T14:58:41.619Z,-0.87
2024-01-29T15:01:08.936Z,-0.80
2024-01-29T15:03:37.867Z,-0.86
2024-01-29T15:06:05.514Z,-0.87
2024-01-29T15:08:32.936Z,-0.89
2024-01-29T15:11:01.790Z,-0.87
2024-01-29T15:13:31.935Z,-0.82
2024-01-29T15:15:59.571Z,-0.85
2024-01-29T15:18:27.273Z,-0.78
2024-01-29T15:20:54.571Z,-0.77
2024-01-29T15:23:21.993Z,-0.85
2024-01-29T15:25:49.324Z,-0.88
2024-01-29T15:28:18.279Z,-0.84
2024-01-29T15:30:45.665Z,-0.82
2024-01-29T15:33:13.172Z,-0.78
2024-01-29T15:35:41.910Z,-0.87
2024-01-29T15:38:12.857Z,-0.82
2024-01-29T15:40:41.593Z,-0.88
2024-01-29T15:43:09.025Z,-0.87
2024-01-29T15:45:36.485Z,-0.76
2024-01-29T15:48:04.073Z,-0.78
2024-01-29T15:50:31.415Z,-0.80
2024-01-29T15:52:58.686Z,-0.78
2024-01-29T15:55:27.128Z,-0.81
2024-01-29T15:57:54.508Z,-0.87
2024-01-29T16:00:21.896Z,-0.90
2024-01-29T16:02:49.298Z,-0.89
2024-01-29T16:05:17.197Z,-0.82
2024-01-29T16:07:46.675Z,-0.82
2024-01-29T16:10:14.209Z,-0.83
2024-01-29T16:12:41.998Z,-0.81
2024-01-29T16:15:09.464Z,-0.73
2024-01-29T16:17:36.914Z,-0.72
2024-01-29T16:20:04.431Z,-0.72
2024-01-29T16:22:31.834Z,-0.71
2024-01-29T16:24:59.187Z,-0.71
2024-01-29T16:27:26.627Z,-0.72
2024-01-29T16:29:56.287Z,-0.69
2024-01-29T16:32:23.640Z,-0.65
2024-01-29T16:34:50.979Z,-0.72
2024-01-29T16:37:18.396Z,-0.73
2024-01-29T16:39:45.888Z,-0.71
2024-01-29T16:42:13.230Z,-0.67
2024-01-29T16:44:42.091Z,-0.69
2024-01-29T16:47:09.498Z,-0.85
2024-01-29T16:49:36.855Z,-0.74
2024-01-29T16:52:05.584Z,-0.85
2024-01-29T16:54:33.626Z,-0.80
2024-01-29T16:57:05.419Z,-0.92
2024-01-29T16:59:33.215Z,-0.74
2024-01-29T17:02:00.991Z,-0.95
2024-01-29T17:04:28.483Z,-1.02
2024-01-29T17:06:55.831Z,-0.96
2024-01-29T17:09:23.149Z,-0.93
2024-01-29T17:11:50.469Z,-0.91
2024-01-29T17:14:17.813Z,-0.92
2024-01-29T17:16:46.161Z,-0.91
2024-01-29T17:19:13.584Z,-0.81
2024-01-29T17:21:41.000Z,-0.71
2024-01-29T17:24:08.371Z,-0.66
2024-01-29T17:26:36.576Z,-0.59
2024-01-29T17:29:03.943Z,-0.56
2024-01-29T17:31:31.278Z,-0.57
2024-01-29T17:33:58.950Z,-0.58
2024-01-29T17:36:26.595Z,-0.52
2024-01-29T17:38:53.941Z,-0.48
2024-01-29T17:41:21.684Z,-0.45
2024-01-29T17:43:50.126Z,-0.45
2024-01-29T17:46:17.558Z,-0.47
2024-01-29T17:48:45.026Z,-0.45
2024-01-29T17:51:12.380Z,-0.39
2024-01-29T17:53:40.066Z,-0.40
2024-01-29T17:56:07.519Z,-0.47
2024-01-29T17:58:34.964Z,-0.41
2024-01-29T18:01:02.529Z,-0.41
2024-01-29T18:03:29.998Z,-0.45
2024-01-29T18:05:57.299Z,-0.48
2024-01-29T18:08:24.756Z,-0.52
2024-01-29T18:10:53.267Z,-0.57
2024-01-29T18:13:22.624Z,-0.54
2024-01-29T18:15:50.049Z,-0.48
2024-01-29T18:18:17.486Z,-0.44
2024-01-29T18:20:44.894Z,-0.42
2024-01-29T18:23:14.054Z,-0.41
2024-01-29T18:25:41.904Z,-0.34
2024-01-29T18:28:09.300Z,-0.37
2024-01-29T18:30:37.266Z,-0.39
2024-01-29T18:33:04.893Z,-0.39
2024-01-29T18:35:32.328Z,-0.35
2024-01-29T18:37:59.610Z,-0.29
2024-01-29T18:40:28.870Z,-0.35
2024-01-29T18:42:56.519Z,-0.33
2024-01-29T18:45:23.981Z,-0.29
2024-01-29T18:47:51.412Z,-0.24
2024-01-29T18:50:19.076Z,-0.19
2024-01-29T18:52:46.425Z,-0.15
2024-01-29T18:55:13.954Z,-0.18
2024-01-29T18:57:41.495Z,-0.24
2024-01-29T19:00:09.054Z,-0.24
2024-01-29T19:02:36.450Z,-0.16
2024-01-29T19:05:04.059Z,-0.15
2024-01-29T19:07:31.493Z,-0.14
2024-01-29T19:09:58.804Z,-0.14
2024-01-29T19:12:26.148Z,-0.11
2024-01-29T19:14:53.476Z,-0.14
2024-01-29T19:17:20.771Z,-0.10
2024-01-29T19:19:48.231Z,-0.09
2024-01-29T19:22:15.922Z,-0.12
2024-01-29T19:24:43.476Z,-0.09
2024-01-29T19:27:11.484Z,-0.09
2024-01-29T19:29:40.399Z,0.01
2024-01-29T19:32:09.434Z,0.03
2024-01-29T19:34:37.802Z,-0.01
2024-01-29T19:37:06.087Z,-0.01
2024-01-29T19:39:33.497Z,-0.06
2024-01-29T19:42:00.966Z,-0.03
2024-01-29T19:44:28.252Z,0.01
2024-01-29T19:46:55.560Z,0.04
2024-01-29T19:49:23.100Z,-0.05
2024-01-29T19:51:52.292Z,-0.06
2024-01-29T19:54:19.625Z,-0.06
2024-01-29T19:56:46.918Z,-0.06
2024-01-29T19:59:14.224Z,-0.01
2024-01-29T20:01:42.189Z,0.07
2024-01-29T20:04:09.845Z,0.14
2024-01-29T20:06:38.133Z,0.18
2024-01-29T20:09:06.893Z,0.28
2024-01-29T20:11:34.231Z,0.28
2024-01-29T20:14:02.057Z,0.30
2024-01-29T20:16:29.355Z,0.24
2024-01-29T20:18:56.768Z,0.17
2024-01-29T20:21:24.051Z,0.16
2024-01-29T20:23:55.151Z,0.09
2024-01-29T20:26:22.704Z,0.09
2024-01-29T20:28:50.136Z,0.08
2024-01-29T20:31:26.974Z,0.08
2024-01-29T20:33:54.717Z,0.02
2024-01-29T20:36:24.503Z,0.13
2024-01-29T20:38:52.047Z,0.10
2024-01-29T20:41:32.494Z,0.10
2024-01-29T20:44:07.728Z,0.16
2024-01-29T20:46:35.580Z,0.13
2024-01-29T20:49:03.442Z,0.14
2024-01-29T20:51:31.011Z,0.16
2024-01-29T20:53:58.552Z,0.15
2024-01-29T20:56:26.156Z,0.21
2024-01-29T20:58:54.038Z,0.14
2024-01-29T21:01:21.563Z,0.13
2024-01-29T21:03:49.371Z,0.17
2024-01-29T21:06:16.904Z,0.12
2024-01-29T21:08:44.285Z,0.12
2024-01-29T21:11:11.947Z,0.10
2024-01-29T21:13:39.362Z,0.07
2024-01-29T21:16:07.081Z,0.14
2024-01-29T21:18:35.083Z,0.17
2024-01-29T21:21:02.498Z,0.21
2024-01-29T21:23:29.808Z,0.21
2024-01-29T21:25:57.100Z,0.25
2024-01-29T21:28:24.715Z,0.27
2024-01-29T21:30:52.075Z,0.31
2024-01-29T21:33:19.387Z,0.17
2024-01-29T21:35:46.670Z,0.20
2024-01-29T21:38:14.122Z,0.24
2024-01-29T21:40:41.403Z,0.25
2024-01-29T21:43:08.720Z,0.26
2024-01-29T21:45:36.014Z,0.28
2024-01-29T21:48:04.848Z,0.31
2024-01-29T21:50:32.629Z,0.31
2024-01-29T21:52:59.918Z,0.37
2024-01-29T21:55:27.271Z,0.51
2024-01-29T21:57:55.915Z,0.34
2024-01-29T22:00:23.334Z,0.33
2024-01-29T22:02:50.659Z,0.38
2024-01-29T22:05:18.231Z,0.40
2024-01-29T22:07:46.273Z,0.41
2024-01-29T22:10:13.668Z,0.46
2024-01-29T22:12:41.385Z,0.53
2024-01-29T22:15:10.287Z,0.55
2024-01-29T22:17:37.687Z,0.55
2024-01-29T22:20:05.436Z,0.61
2024-01-29T22:22:32.829Z,0.68
2024-01-29T22:25:00.331Z,0.72
2024-01-29T22:27:30.553Z,0.75
2024-01-29T22:29:59.840Z,0.73
2024-01-29T22:32:27.125Z,0.73
2024-01-29T22:34:54.483Z,0.76
2024-01-29T22:37:22.322Z,0.79
2024-01-29T22:39:49.678Z,0.83
2024-01-29T22:42:17.026Z,0.88
2024-01-29T22:44:44.354Z,0.92
2024-01-29T22:47:11.674Z,0.98
2024-01-29T22:49:38.997Z,0.93
2024-01-29T22:52:06.635Z,0.91
2024-01-29T22:54:33.995Z,0.99
2024-01-29T22:57:01.285Z,0.97
2024-01-29T22:59:28.612Z,0.97
2024-01-29T23:01:56.053Z,0.97
2024-01-29T23:04:24.715Z,0.97
2024-01-29T23:06:52.347Z,0.99
2024-01-29T23:09:19.707Z,1.07
2024-01-29T23:11:47.068Z,1.14
2024-01-29T23:14:14.647Z,1.17
2024-01-29T23:16:41.945Z,1.14
2024-01-29T23:19:09.541Z,1.10
2024-01-29T23:21:37.198Z,1.14
2024-01-29T23:24:04.645Z,1.09
2024-01-29T23:26:31.941Z,1.08
2024-01-29T23:28:59.287Z,1.10
2024-01-29T23:31:26.740Z,1.16
2024-01-29T23:33:54.669Z,1.16
2024-01-29T23:36:21.994Z,1.15
2024-01-29T23:38:49.311Z,1.16
2024-01-29T23:41:16.595Z,1.10
2024-01-29T23:43:44.055Z,1.13
2024-01-29T23:46:11.415Z,1.15
2024-01-29T23:48:38.792Z,1.14
2024-01-29T23:51:06.105Z,1.19
2024-01-29T23:53:33.678Z,1.21
2024-01-29T23:56:00.974Z,1.21
2024-01-29T23:58:28.342Z,1.16
